Latest Coastal Weather Observations for Wynyard

IDV60701

Issued at 9:02 pm EST Tuesday 30 August 2016 (issued every 10 minutes, with the page automatically refreshed every 10 minutes)

About coastal observations | Map of coastal stations | Coastal observations for VIC | Marine services | Other Formats
Station Details ID: 091107 Name: WYNYARD AIRPORT Lat: -41.00 Lon: 145.73 Height: 12.0 m
Data from the previous 72 hours. | See also: Recent months at Wynyard
Date/Time
EST
Temp
°C
Wind Pressure Rain since
9am
mm
Weather Cloud Vis
km
Sea
Height
m
Swell
Dir  Spd
kts
Gust
kts
hPa Trend Height
m
Period
s
Dir
30/09:00pm 10.3 E 8 13 1015.0 - 9.0 Rain Cloudy 4 - - - -
30/08:54pm 10.4 E 8 11 1015.0 - 8.8 - Partly cloudy 5 - - - -
30/08:52pm 10.5 E 8 11 1015.0 - 8.6 - Partly cloudy 5 - - - -
30/08:51pm 10.5 E 7 11 1015.0 - 8.6 - Partly cloudy 6 - - - -
30/08:30pm 10.7 E 7 10 1015.3 - 7.2 - Partly cloudy 5 - - - -
30/08:28pm 10.7 E 7 10 1015.3 - 6.8 - Partly cloudy 5 - - - -
30/08:07pm 10.6 E 7 10 1015.4 - 5.2 - Partly cloudy 5 - - - -
30/08:00pm 10.6 E 6 10 1015.4 - 4.6 - Partly cloudy 6 - - - -
30/07:30pm 11.1 E 7 13 1015.2 - 3.2 - Partly cloudy 7 - - - -
30/07:00pm 11.7 ESE 10 13 1015.4 - 2.2 - Partly cloudy 6 - - - -
30/06:30pm 11.8 ESE 9 11 1015.7 - 0.8 - Partly cloudy 6 - - - -
30/06:03pm 11.9 ESE 8 10 1015.7 - 0.2 - Partly cloudy 7 - - - -
30/06:00pm 11.9 ESE 8 10 1015.7 - 0.2 Recent precip. Cloudy 8 - - - -
30/05:30pm 12.0 E 6 9 1015.9 - 0.0 - Partly cloudy 9 - - - -
30/05:00pm 12.2 ESE 8 11 1015.9 - 0.0 - Partly cloudy 10 - - - -
30/04:34pm 12.3 E 8 11 1016.2 - 0.0 - Partly cloudy 10 - - - -
30/04:30pm 12.3 E 8 11 1016.2 - 0.0 - Partly cloudy 10 - - - -
30/04:00pm 12.5 E 8 12 1016.7 - 0.0 - Partly cloudy 10 - - - -
30/03:48pm 12.5 E 11 16 1016.7 - 0.0 - Partly cloudy 10 - - - -
30/03:30pm 12.4 E 8 13 1017.3 - 0.0 - Partly cloudy 10 - - - -
30/03:25pm 12.4 E 8 13 1017.5 - 0.0 - Partly cloudy 10 - - - -
30/03:00pm 12.6 ESE 11 15 1017.4 - 0.0 - Cloudy 10 - - - -
30/02:30pm 12.5 ESE 11 15 1018.0 - 0.0 - Partly cloudy 10 - - - -
30/02:00pm 12.3 ESE 10 16 1018.6 - 0.0 - Cloudy 10 - - - -
30/01:30pm 12.2 E 10 15 1018.7 - 0.0 - Cloudy 10 - - - -
30/01:00pm 12.3 E 10 15 1019.2 - 0.0 - Cloudy 10 - - - -
30/12:40pm 12.5 E 11 15 1019.4 - 0.0 - Cloudy 10 - - - -
30/12:30pm 12.3 E 10 15 1019.6 - 0.0 - Cloudy 10 - - - -
30/12:00pm 12.3 E 11 16 1019.9 - 0.0 - Mostly cloudy 10 - - - -
30/11:30am 12.4 E 11 17 1020.1 - 0.0 - Cloudy 10 - - - -
30/11:00am 12.2 E 12 18 1020.5 - 0.0 - Partly cloudy 10 - - - -
30/10:30am 11.8 E 12 18 1021.0 - 0.0 - Partly cloudy 10 - - - -
30/10:00am 12.1 ESE 15 19 1021.2 - 0.0 - Partly cloudy 10 - - - -
30/09:30am 11.6 E 9 15 1021.8 - 0.0 - - 10 - - - -
30/09:00am 11.3 ESE 7 13 1022.2 - 0.0 - Mostly cloudy 10 - - - -
30/08:30am 9.4 ESE 5 7 1022.7 - 0.0 - Partly cloudy 10 - - - -
30/08:00am 8.3 SSE 3 6 1023.0 - 0.0 - Partly cloudy 10 - - - -
30/07:30am 7.7 SSE 4 5 1023.2 - 0.0 - Partly cloudy 10 - - - -
30/07:05am 7.6 SSE 5 6 1023.3 - 0.0 - Partly cloudy 10 - - - -
30/07:00am 7.6 SSE 6 7 1023.2 - 0.0 - Partly cloudy 10 - - - -
30/06:30am 7.9 SSE 5 7 1023.2 - 0.0 - Cloudy 10 - - - -
30/06:00am 7.7 SE 7 9 1023.2 - 0.0 - Mostly cloudy 10 - - - -
30/05:30am 8.1 SSE 9 11 1023.2 - 0.0 - Cloudy 10 - - - -
30/05:00am 8.3 SSE 8 10 1023.7 - 0.0 - Cloudy 10 - - - -
30/04:30am 8.2 SSE 9 12 1023.7 - 0.0 - Cloudy 10 - - - -
30/04:00am 7.4 SSE 6 8 1023.7 - 0.0 - Cloudy 10 - - - -
30/03:30am 6.9 S 5 9 1023.6 - 0.0 - Partly cloudy 10 - - - -
30/03:00am 6.5 SSE 5 6 1023.3 - 0.0 - Cloudy 10 - - - -
30/02:30am 4.3 W 4 5 1023.4 - 0.0 - Cloudy 10 - - - -
30/02:00am 4.0 WNW 4 5 1023.7 - 0.0 - Cloudy 10 - - - -
30/01:43am 2.9 W 5 6 1023.7 - 0.0 - Cloudy 8 - - - -
30/01:30am 2.1 WNW 5 6 1023.8 - 0.0 - Partly cloudy 5 - - - -
30/01:00am 2.5 WNW 5 5 1024.0 - 0.0 - - 5 - - - -
30/12:44am 2.1 WNW 5 5 1024.3 - 0.0 - - 5 - - - -
30/12:30am 2.8 WNW 4 5 1024.5 - 0.0 - - 10 - - - -
30/12:00am 2.4 W 5 6 1024.9 - 0.0 - - 10 - - - -
 
Date/Time
EST
Temp
°C
Wind Pressure Rain since
9am
mm
Weather Cloud Vis
km
Sea
Height
m
Swell
Dir  Spd
kts
Gust
kts
hPa Trend Height
m
Period
s
Dir
29/11:37pm 3.6 WNW 6 8 1025.0 - 0.0 - - 9 - - - -
29/11:30pm 3.9 NW 7 8 1025.0 - 0.0 - - 7 - - - -
29/11:20pm 2.9 W 6 7 1024.8 - 0.0 - - 5 - - - -
29/11:00pm 3.6 SSW 3 5 1024.6 - 0.0 - - 10 - - - -
29/10:30pm 3.2 WSW 1 4 1024.7 - 0.0 - - 10 - - - -
29/10:00pm 3.3 W 5 6 1025.1 - 0.0 - - 10 - - - -
29/09:30pm 3.7 WNW 5 6 1024.9 - 0.0 - - 10 - - - -
29/09:00pm 4.6 WNW 4 5 1024.5 - 0.0 - - 10 - - - -
29/08:30pm 4.3 W 4 5 1024.3 - 0.0 - - 10 - - - -
29/08:00pm 4.7 CALM 0 0 1024.0 - 0.0 - - 10 - - - -
29/07:30pm 5.1 CALM 0 1 1024.0 - 0.0 - - 10 - - - -
29/07:00pm 5.5 S 5 6 1023.9 - 0.0 - - 10 - - - -
29/06:30pm 6.4 SSE 5 6 1023.8 - 0.0 - - 10 - - - -
29/06:00pm 8.7 CALM 0 0 1023.7 - 0.0 - - 10 - - - -
29/05:30pm 9.8 NE 4 5 1023.4 - 0.0 - - 10 - - - -
29/05:00pm 10.3 NE 4 5 1023.2 - 0.0 - - 10 - - - -
29/04:30pm 10.8 NNE 5 6 1023.2 - 0.0 - - 10 - - - -
29/04:00pm 10.7 NNE 6 8 1023.2 - 0.0 - - 10 - - - -
29/03:30pm 11.0 NNE 5 7 1023.1 - 0.0 - - 10 - - - -
29/03:00pm 11.0 NE 5 7 1023.1 - 0.0 - - 10 - - - -
29/02:30pm 10.8 NE 7 9 1023.2 - 0.0 - - 10 - - - -
29/02:00pm 10.7 NE 6 9 1023.1 - 0.0 - - 10 - - - -
29/01:30pm 11.1 NE 5 7 1023.6 - 0.0 - - 10 - - - -
29/01:00pm 10.2 E 4 6 1023.9 - 0.0 - - 10 - - - -
29/12:30pm 9.8 NE 5 7 1024.3 - 0.0 - - 10 - - - -
29/12:00pm 9.4 NE 5 7 1024.3 - 0.0 - Mostly cloudy 10 - - - -
29/11:30am 9.5 NE 6 9 1024.4 - 0.0 - - 10 - - - -
29/11:00am 9.2 E 5 8 1024.4 - 0.0 - - 10 - - - -
29/10:30am 9.0 E 5 6 1024.8 - 0.0 - - 10 - - - -
29/10:00am 8.6 E 5 8 1024.9 - 0.0 - - 10 - - - -
29/09:30am 8.1 WNW 1 4 1025.1 - 0.0 - - 10 - - - -
29/09:00am 6.4 W 3 6 1025.1 - 0.0 - Mostly clear 10 - - - -
29/08:30am 4.5 W 6 7 1024.9 - 0.0 - - 10 - - - -
29/08:00am 2.9 WSW 2 3 1024.5 - 0.0 - - 10 - - - -
29/07:30am 1.6 W 4 5 1024.3 - 0.0 - - 10 - - - -
29/07:00am 1.2 WNW 7 8 1023.9 - 0.0 - - 10 - - - -
29/06:30am 0.8 WNW 9 10 1023.4 - 0.0 - - 10 - - - -
29/06:00am 0.4 W 9 10 1023.2 - 0.0 - - 10 - - - -
29/05:30am 1.5 WNW 7 9 1023.1 - 0.0 - - 10 - - - -
29/05:00am 1.4 W 7 9 1022.6 - 0.0 - - 10 - - - -
29/04:30am 1.4 W 9 11 1022.4 - 0.0 - - 10 - - - -
29/04:00am 1.4 W 7 9 1022.4 - 0.0 - - 10 - - - -
29/03:30am 1.4 W 8 9 1022.3 - 0.0 - - 10 - - - -
29/03:00am 1.4 W 6 8 1022.5 - 0.0 - - 10 - - - -
29/02:30am 1.7 WSW 6 8 1022.4 - 0.0 - - 10 - - - -
29/02:00am 1.8 W 9 11 1022.5 - 0.0 - - 10 - - - -
29/01:30am 1.6 W 9 11 1022.6 - 0.0 - - 10 - - - -
29/01:00am 1.8 WSW 7 9 1022.3 - 0.0 - - 10 - - - -
29/12:30am 1.9 WSW 8 10 1022.3 - 0.0 - - 10 - - - -
29/12:00am 1.8 WSW 5 6 1022.2 - 0.0 - - 10 - - - -
 
Date/Time
EST
Temp
°C
Wind Pressure Rain since
9am
mm
Weather Cloud Vis
km
Sea
Height
m
Swell
Dir  Spd
kts
Gust
kts
hPa Trend Height
m
Period
s
Dir
28/11:30pm 2.3 W 7 8 1022.0 - 0.0 - - 10 - - - -
28/11:00pm 2.3 SW 7 9 1021.7 - 0.0 - - 10 - - - -
28/10:30pm 3.9 W 5 5 1021.7 - 0.0 - - 10 - - - -
28/10:00pm 4.6 NW 5 5 1021.6 - 0.0 - - 10 - - - -
28/09:30pm 4.1 CALM 0 3 1021.2 - 0.0 - - 10 - - - -
28/09:00pm 4.4 SW 3 4 1021.2 - 0.0 - - 10 - - - -
28/08:30pm 4.1 W 7 9 1021.1 - 0.0 - - 10 - - - -
28/08:00pm 4.1 W 6 8 1020.5 - 0.0 - - 10 - - - -
28/07:30pm 4.3 W 7 8 1020.1 - 0.0 - - 10 - - - -
28/07:00pm 5.2 WSW 6 8 1019.7 - 0.0 - - 10 - - - -
28/06:30pm 6.0 W 7 8 1019.6 - 0.0 - - 10 - - - -
28/06:00pm 7.7 WSW 7 8 1019.0 - 0.0 - - 10 - - - -
28/05:30pm 9.0 WSW 7 9 1018.5 - 0.0 - - 10 - - - -
28/05:00pm 11.2 W 9 14 1018.1 - 0.0 - - 10 - - - -
28/04:30pm 12.0 WSW 9 11 1018.0 - 0.0 - - 10 - - - -
28/04:00pm 12.3 W 9 13 1017.9 - 0.0 - Partly cloudy 10 - - - -
28/03:30pm 13.0 W 11 16 1017.8 - 0.0 - Partly cloudy 10 - - - -
28/03:00pm 13.0 W 9 13 1017.6 - 0.0 - Partly cloudy 10 - - - -
28/02:30pm 13.2 W 7 13 1017.5 - 0.0 - Partly cloudy 10 - - - -
28/02:00pm 11.4 SW 7 10 1017.7 - 0.0 - Partly cloudy 10 - - - -
28/01:30pm 11.8 W 8 11 1018.0 - 0.0 - Partly cloudy 10 - - - -
28/01:00pm 11.0 WSW 9 13 1018.1 - 0.0 - Partly cloudy 10 - - - -
28/12:30pm 11.4 SW 9 15 1018.1 - 0.0 - Partly cloudy 10 - - - -
28/12:00pm 11.1 WSW 8 13 1018.2 - 0.0 - Partly cloudy 10 - - - -
28/11:30am 10.5 SW 9 12 1018.5 - 0.0 - Partly cloudy 10 - - - -
28/11:00am 10.7 SW 9 11 1018.6 - 0.0 - Partly cloudy 10 - - - -
28/10:30am 10.7 SSW 9 13 1018.6 - 0.0 - Partly cloudy 10 - - - -
28/10:00am 9.6 WSW 7 13 1018.6 - 0.0 - Partly cloudy 10 - - - -
28/09:30am 9.1 WNW 6 9 1018.4 - 0.0 - - 10 - - - -
28/09:00am 8.2 WNW 6 8 1018.1 - 16.4 - - 10 - - - -
28/08:30am 6.7 W 5 7 1017.8 - 16.4 - Partly cloudy 10 - - - -
28/08:00am 4.9 CALM 0 0 1017.4 - 16.4 - - 10 - - - -
28/07:30am 2.9 WSW 4 5 1016.9 - 16.4 - - 10 - - - -
28/07:00am 2.2 W 7 8 1016.2 - 16.4 - - 10 - - - -
28/06:30am 2.2 WSW 5 7 1015.6 - 16.4 - - 10 - - - -
28/06:00am 2.9 W 6 7 1015.1 - 16.4 - - 10 - - - -
28/05:30am 3.2 W 7 8 1014.3 - 16.4 - - 10 - - - -
28/05:00am 5.1 WNW 6 7 1013.8 - 16.4 - - 10 - - - -
28/04:30am 5.2 W 7 9 1013.1 - 16.4 - - 10 - - - -
28/04:00am 5.5 WNW 6 7 1012.5 - 16.4 - - 10 - - - -
28/03:30am 7.2 W 7 9 1012.0 - 16.4 - - 10 - - - -
28/03:00am 8.2 W 12 16 1011.3 - 16.4 - Mostly clear 10 - - - -
28/02:30am 8.7 W 11 13 1011.0 - 16.4 - Partly cloudy 10 - - - -
28/02:00am 9.4 W 11 14 1010.8 - 16.4 - Partly cloudy 10 - - - -
28/01:30am 9.7 WNW 9 11 1010.4 - 16.4 - Partly cloudy 10 - - - -
28/01:18am 9.8 WNW 9 12 1010.5 - 16.4 - Partly cloudy 10 - - - -
28/01:01am 9.9 WNW 11 15 1010.5 - 16.0 - Partly cloudy 5 - - - -
28/01:00am 9.9 WNW 11 15 1010.4 - 16.0 - Partly cloudy 6 - - - -
28/12:30am 10.1 WNW 16 22 1010.0 - 16.0 - Partly cloudy 10 - - - -
28/12:28am 10.1 WNW 16 22 1010.0 - 16.0 - Partly cloudy 10 - - - -
28/12:11am 10.3 W 20 31 1010.1 - 15.8 - Partly cloudy 3 - - - -
28/12:09am 10.4 W 20 29 1010.2 - 15.6 - Partly cloudy 3 - - - -
28/12:03am 11.0 WNW 20 29 1010.6 - 14.8 - Partly cloudy 3 - - - -
28/12:00am 11.1 WNW 21 29 1010.2 - 14.0 Rain Cloudy 4 - - - -
 
Date/Time
EST
Temp
°C
Wind Pressure Rain since
9am
mm
Weather Cloud Vis
km
Sea
Height
m
Swell
Dir  Spd
kts
Gust
kts
hPa Trend Height
m
Period
s
Dir
27/11:54pm 11.3 WNW 20 29 1009.7 - 13.4 - Partly cloudy 5 - - - -
27/11:30pm 11.1 NW 20 30 1009.7 - 12.4 - Partly cloudy 7 - - - -
27/11:07pm 10.9 NW 16 26 1009.9 - 11.8 - Partly cloudy 9 - - - -
27/11:00pm 10.7 NW 16 24 1010.0 - 11.6 - Partly cloudy 8 - - - -
27/10:57pm 10.7 NW 16 24 1010.2 - 11.6 - Partly cloudy 7 - - - -
27/10:30pm 10.6 NW 17 23 1010.7 - 9.8 - Partly cloudy 5 - - - -
27/10:24pm 10.7 NW 17 26 1010.9 - 9.6 - Partly cloudy 5 - - - -
27/10:14pm 11.0 NW 17 27 1011.0 - 9.4 - Partly cloudy 8 - - - -
27/10:00pm 10.9 NW 15 23 1011.3 - 9.0 - Partly cloudy 8 - - - -
27/09:30pm 10.8 NW 16 22 1011.9 - 8.8 - Partly cloudy 8 - - - -

Other Formats:

Comma delimited format used in spreadsheet applications
http://www.bom.gov.au/fwo/IDV60701/IDV60701.95957.axf

JavaScript Object Notation format (JSON) in row-major order
http://www.bom.gov.au/fwo/IDV60701/IDV60701.95957.json